Strona główna
METAR-TAF:

METAR-TAF

Lotnisko :

Port lotniczy Konakry

Konakry, Gwinea

Szerokość geograficzna: 09-34N, Długość geograficzna: 013-37W, wysokość: 26 m

Aktualna obserwacja pogody

Raport powstał 36 minut temu, godzina 11:00 UTC
Wiatr 6 kt od południowo-południowy wschód
Temperatura 30°C
Wilgotność 75%
Ciśnienie 1011 hPa
Widzialność: 5000 m
Rozproszone chmury na wysokości 1500 ft
Rozproszone chmury na wysokości 11000 ft
zmętnienie

METAR: GUCY 101100Z 16006KT 5000 HZ SCT015 SCT110 30/25 Q1011 NOSIG

czas: 11:36 (11:36 UTC)

Prognoza

Raport powstał 36 minut temu, godzina 11:00 UTC
Prognoza ważna od 10 godzina 12 UTC do 11 godzina 18 UTC
Wiatr 8 kt od północny zachód
Widzialność: 5000 m
Mało chmury na wysokości 2000 ft
Rozproszone chmury na wysokości 12000 ft
zmętnienie
Przejściowo
od 11 godzina 04 UTC do 11 godzina 09 UTC
Wiatr 2 kt z kierunków zmiennych
Widzialność: 3000 m
zamglenie

TAF: GUCY 101100Z 1012/1118 32008KT 5000 HZ FEW020 SCT120 TEMPO 1104/1109 VRB02KT 3000 BR

Obserwacja i prognoza pogody dla ponad 4000 lotnisk (raport METAR i TAF).

Dostępne stacje oznaczono żółtymi i czerwonymi punktami na mapie.

Najedź kursorem aby zobaczyć nazwę stacji.

Kliknij aby zobaczyć obserwacje i prognozy pogody.

Aby zmienić mapę: kliknij na zielony przycisk z czarnym krzyżykiem, aby powiększyć; na zielony przycisk z myślnikiem, aby pomniejszyć; na zielone strzałki, aby przejść do map sąsiednich.


METAR-TAF: